South Lyon, MI (48178)

12:13 AM EST on January 26, 2015 (GMT -0500)
salem township | Change Station
CLOSE
Current Station
Personal Weather Station
Location: South Lyon, MI
Elevation: 919 ft
Nearby Weather Stations

Elev 919 ft 42.43 °N, 83.65 °W | Updated 7 seconds ago

Mostly Cloudy
Mostly Cloudy
16.9 °F
Feels Like 17 °F
N
2.0
Wind Variable Wind from NE
Gusts 4.0 mph

Today
High -- | Low -- °F
--% Chance of Precip.
Yesterday
High -- | Low -- °F
Precip. -- in
7:54 AM 5:40 PM
Waxing Crescent, 39% visible
Pressure 30.01 in
Visibility 10.0 miles
Clouds Clear
Windchill 17 °F
Dew Point 11 °F
Humidity 76%
Rainfall 0.00 in
Snow Depth Not available.
UV 0 out of 12
Pollen .10 out of 12
Air Quality Not available.
Flu Activity Not available.
METAR KYIP 260453Z AUTO 04010KT 10SM CLR M06/M12 A2998 RMK AO2 SLP160 T10611122 400281061 TSNO

More Conditions Fewer Conditions

Pressure 30.01 in
Visibility 10.0 miles
Clouds Clear
Windchill 17 °F
Dew Point 11 °F
Humidity 76%
Rainfall 0.00 in
Snow Depth Not available.
UV 0 out of 12
Pollen .10 out of 12
Air Quality Not available.
Flu Activity Not available.
METAR KYIP 260453Z AUTO 04010KT 10SM CLR M06/M12 A2998 RMK AO2 SLP160 T10611122 400281061 TSNO

More Conditions Fewer Conditions

10-Day Weather Forecast

Almanac

Astronomy

Jan. 26, 2015 Rise Set
Actual Time
Civil Twilight
Nautical Twilight
Astronomical Twilight
Moon
Length of Visible Light
Length of Day
Tomorrow will be .
, % of the Moon is Illuminated

Today's Extremes

State Highs State Lows

Community

WunderPhotos

Upload Photos

1,790,151 photos uploaded!

WunderBlogs® & News

Nearby

Air Quality

  Air Quality AQ Index Pollutant
Not available.

Snow Depth

Station Depth Elevation

Earthquake Activity

City Distance Mag. Time & Date
Minimum magnitude displayed is 2.5.

Coastal Water Temperatures

Place Temperature

Nearby Weather Stations